sensor_id;sensor_type;location;lat;lon;timestamp;P1;durP1;ratioP1;P2;durP2;ratioP2
19889;SDS011;10107;51.198;6.824;2023-04-24T00:01:25;2.60;;;1.40;;
19889;SDS011;10107;51.198;6.824;2023-04-24T00:05:29;4.82;;;1.50;;
19889;SDS011;10107;51.198;6.824;2023-04-24T00:09:32;2.00;;;1.60;;
19889;SDS011;10107;51.198;6.824;2023-04-24T00:13:33;2.65;;;1.98;;
19889;SDS011;10107;51.198;6.824;2023-04-24T00:17:35;2.90;;;2.20;;
19889;SDS011;10107;51.198;6.824;2023-04-24T00:21:37;2.95;;;2.03;;
19889;SDS011;10107;51.198;6.824;2023-04-24T00:25:40;2.00;;;1.77;;
19889;SDS011;10107;51.198;6.824;2023-04-24T00:29:42;2.22;;;1.73;;
19889;SDS011;10107;51.198;6.824;2023-04-24T00:33:44;2.95;;;1.73;;
19889;SDS011;10107;51.198;6.824;2023-04-24T00:37:45;2.75;;;2.13;;
19889;SDS011;10107;51.198;6.824;2023-04-24T00:41:48;2.78;;;2.05;;
19889;SDS011;10107;51.198;6.824;2023-04-24T00:45:51;2.15;;;1.58;;
19889;SDS011;10107;51.198;6.824;2023-04-24T00:49:52;1.70;;;1.52;;
19889;SDS011;10107;51.198;6.824;2023-04-24T00:53:54;2.25;;;1.50;;
19889;SDS011;10107;51.198;6.824;2023-04-24T00:57:57;2.45;;;1.73;;
19889;SDS011;10107;51.198;6.824;2023-04-24T01:02:00;3.55;;;1.65;;
19889;SDS011;10107;51.198;6.824;2023-04-24T01:06:02;1.83;;;1.67;;
19889;SDS011;10107;51.198;6.824;2023-04-24T01:10:04;2.47;;;1.80;;
19889;SDS011;10107;51.198;6.824;2023-04-24T01:14:08;2.77;;;1.70;;
19889;SDS011;10107;51.198;6.824;2023-04-24T01:18:10;3.08;;;2.35;;
19889;SDS011;10107;51.198;6.824;2023-04-24T01:22:14;5.25;;;3.30;;
19889;SDS011;10107;51.198;6.824;2023-04-24T01:30:20;5.80;;;4.25;;
19889;SDS011;10107;51.198;6.824;2023-04-24T01:34:21;7.65;;;4.90;;
19889;SDS011;10107;51.198;6.824;2023-04-24T01:38:25;6.15;;;4.70;;
19889;SDS011;10107;51.198;6.824;2023-04-24T01:42:27;10.02;;;4.93;;
19889;SDS011;10107;51.198;6.824;2023-04-24T01:46:29;5.88;;;4.82;;
19889;SDS011;10107;51.198;6.824;2023-04-24T01:50:31;7.88;;;5.10;;
19889;SDS011;10107;51.198;6.824;2023-04-24T01:54:34;6.95;;;4.78;;
19889;SDS011;10107;51.198;6.824;2023-04-24T01:58:36;7.17;;;5.27;;
19889;SDS011;10107;51.198;6.824;2023-04-24T02:02:38;8.30;;;5.60;;
19889;SDS011;10107;51.198;6.824;2023-04-24T02:06:41;8.93;;;5.75;;
19889;SDS011;10107;51.198;6.824;2023-04-24T02:10:44;10.43;;;6.10;;
19889;SDS011;10107;51.198;6.824;2023-04-24T02:14:45;9.18;;;5.88;;
19889;SDS011;10107;51.198;6.824;2023-04-24T02:18:47;12.77;;;6.72;;
19889;SDS011;10107;51.198;6.824;2023-04-24T02:26:54;10.23;;;6.70;;
19889;SDS011;10107;51.198;6.824;2023-04-24T02:30:56;5.20;;;3.95;;
19889;SDS011;10107;51.198;6.824;2023-04-24T02:34:57;12.18;;;6.68;;
19889;SDS011;10107;51.198;6.824;2023-04-24T02:43:05;10.68;;;7.05;;
19889;SDS011;10107;51.198;6.824;2023-04-24T02:47:07;11.65;;;7.28;;
19889;SDS011;10107;51.198;6.824;2023-04-24T02:51:08;10.85;;;7.93;;
19889;SDS011;10107;51.198;6.824;2023-04-24T02:55:10;14.40;;;9.00;;
19889;SDS011;10107;51.198;6.824;2023-04-24T02:59:13;11.85;;;8.30;;
19889;SDS011;10107;51.198;6.824;2023-04-24T03:03:15;12.95;;;7.78;;
19889;SDS011;10107;51.198;6.824;2023-04-24T03:07:17;12.63;;;7.70;;
19889;SDS011;10107;51.198;6.824;2023-04-24T03:11:20;14.38;;;8.65;;
19889;SDS011;10107;51.198;6.824;2023-04-24T03:15:24;11.88;;;8.63;;
19889;SDS011;10107;51.198;6.824;2023-04-24T03:19:25;15.18;;;8.30;;
19889;SDS011;10107;51.198;6.824;2023-04-24T03:23:34;12.02;;;8.05;;
19889;SDS011;10107;51.198;6.824;2023-04-24T03:27:36;12.95;;;7.65;;
19889;SDS011;10107;51.198;6.824;2023-04-24T03:31:47;10.80;;;7.78;;
19889;SDS011;10107;51.198;6.824;2023-04-24T03:39:51;10.18;;;7.78;;
19889;SDS011;10107;51.198;6.824;2023-04-24T03:43:57;13.82;;;8.48;;
19889;SDS011;10107;51.198;6.824;2023-04-24T03:48:01;12.43;;;8.10;;
19889;SDS011;10107;51.198;6.824;2023-04-24T03:56:05;12.55;;;8.73;;
19889;SDS011;10107;51.198;6.824;2023-04-24T04:00:08;11.05;;;7.72;;
19889;SDS011;10107;51.198;6.824;2023-04-24T04:04:16;16.45;;;9.32;;
19889;SDS011;10107;51.198;6.824;2023-04-24T04:08:19;14.43;;;8.98;;
19889;SDS011;10107;51.198;6.824;2023-04-24T04:12:22;15.13;;;8.53;;
19889;SDS011;10107;51.198;6.824;2023-04-24T04:16:23;14.88;;;8.75;;
19889;SDS011;10107;51.198;6.824;2023-04-24T04:20:32;14.45;;;8.25;;
19889;SDS011;10107;51.198;6.824;2023-04-24T04:24:34;10.43;;;6.95;;
19889;SDS011;10107;51.198;6.824;2023-04-24T04:28:38;12.80;;;8.50;;
19889;SDS011;10107;51.198;6.824;2023-04-24T04:32:40;12.15;;;8.20;;
19889;SDS011;10107;51.198;6.824;2023-04-24T04:36:43;12.45;;;7.75;;
19889;SDS011;10107;51.198;6.824;2023-04-24T04:40:59;12.35;;;7.88;;
19889;SDS011;10107;51.198;6.824;2023-04-24T04:45:04;12.90;;;8.25;;
19889;SDS011;10107;51.198;6.824;2023-04-24T04:49:20;11.80;;;8.38;;
19889;SDS011;10107;51.198;6.824;2023-04-24T04:53:26;14.32;;;8.73;;
19889;SDS011;10107;51.198;6.824;2023-04-24T04:57:28;13.77;;;7.97;;
19889;SDS011;10107;51.198;6.824;2023-04-24T05:01:30;9.40;;;5.17;;
19889;SDS011;10107;51.198;6.824;2023-04-24T05:05:32;11.15;;;7.47;;
19889;SDS011;10107;51.198;6.824;2023-04-24T05:09:36;10.68;;;6.90;;
19889;SDS011;10107;51.198;6.824;2023-04-24T05:13:39;10.75;;;6.78;;
19889;SDS011;10107;51.198;6.824;2023-04-24T05:17:50;8.77;;;6.07;;
19889;SDS011;10107;51.198;6.824;2023-04-24T05:21:52;9.50;;;6.38;;
19889;SDS011;10107;51.198;6.824;2023-04-24T05:25:55;9.80;;;6.82;;
19889;SDS011;10107;51.198;6.824;2023-04-24T05:29:57;8.57;;;6.93;;
19889;SDS011;10107;51.198;6.824;2023-04-24T05:34:00;9.20;;;7.10;;
19889;SDS011;10107;51.198;6.824;2023-04-24T05:38:02;8.02;;;6.70;;
19889;SDS011;10107;51.198;6.824;2023-04-24T05:42:05;10.82;;;7.45;;
19889;SDS011;10107;51.198;6.824;2023-04-24T05:46:07;10.38;;;7.85;;
19889;SDS011;10107;51.198;6.824;2023-04-24T05:50:09;10.43;;;7.18;;
19889;SDS011;10107;51.198;6.824;2023-04-24T05:54:11;11.40;;;7.30;;
19889;SDS011;10107;51.198;6.824;2023-04-24T05:58:14;11.43;;;8.43;;
19889;SDS011;10107;51.198;6.824;2023-04-24T06:02:16;11.50;;;7.35;;
19889;SDS011;10107;51.198;6.824;2023-04-24T06:06:18;9.15;;;7.00;;
19889;SDS011;10107;51.198;6.824;2023-04-24T06:10:20;9.55;;;6.95;;
19889;SDS011;10107;51.198;6.824;2023-04-24T06:14:25;11.10;;;6.80;;
19889;SDS011;10107;51.198;6.824;2023-04-24T06:19:05;9.50;;;6.55;;
19889;SDS011;10107;51.198;6.824;2023-04-24T06:23:07;7.63;;;5.43;;
19889;SDS011;10107;51.198;6.824;2023-04-24T06:27:08;7.50;;;5.45;;
19889;SDS011;10107;51.198;6.824;2023-04-24T06:31:11;7.97;;;5.50;;
19889;SDS011;10107;51.198;6.824;2023-04-24T06:35:13;7.40;;;4.63;;
19889;SDS011;10107;51.198;6.824;2023-04-24T06:39:15;8.13;;;6.03;;
19889;SDS011;10107;51.198;6.824;2023-04-24T06:43:16;11.00;;;6.25;;
19889;SDS011;10107;51.198;6.824;2023-04-24T06:47:20;9.18;;;6.53;;
19889;SDS011;10107;51.198;6.824;2023-04-24T06:51:22;9.47;;;6.73;;
19889;SDS011;10107;51.198;6.824;2023-04-24T06:55:24;8.98;;;6.20;;
19889;SDS011;10107;51.198;6.824;2023-04-24T06:59:25;6.38;;;5.20;;
19889;SDS011;10107;51.198;6.824;2023-04-24T07:03:28;7.60;;;5.00;;
19889;SDS011;10107;51.198;6.824;2023-04-24T07:07:30;7.18;;;4.90;;
19889;SDS011;10107;51.198;6.824;2023-04-24T07:11:32;7.10;;;4.32;;
19889;SDS011;10107;51.198;6.824;2023-04-24T07:15:34;7.13;;;4.53;;
19889;SDS011;10107;51.198;6.824;2023-04-24T07:19:37;4.55;;;3.80;;
19889;SDS011;10107;51.198;6.824;2023-04-24T07:23:38;4.93;;;3.20;;
19889;SDS011;10107;51.198;6.824;2023-04-24T07:27:41;6.00;;;3.25;;
19889;SDS011;10107;51.198;6.824;2023-04-24T07:31:43;3.40;;;2.70;;
19889;SDS011;10107;51.198;6.824;2023-04-24T07:35:46;3.10;;;2.25;;
19889;SDS011;10107;51.198;6.824;2023-04-24T07:39:48;2.85;;;1.92;;
19889;SDS011;10107;51.198;6.824;2023-04-24T07:43:50;1.50;;;1.40;;
19889;SDS011;10107;51.198;6.824;2023-04-24T07:47:52;1.33;;;0.93;;
19889;SDS011;10107;51.198;6.824;2023-04-24T07:51:55;1.35;;;0.80;;
19889;SDS011;10107;51.198;6.824;2023-04-24T07:55:57;0.47;;;0.47;;
19889;SDS011;10107;51.198;6.824;2023-04-24T07:59:58;1.13;;;0.70;;
19889;SDS011;10107;51.198;6.824;2023-04-24T08:04:00;2.13;;;0.68;;
19889;SDS011;10107;51.198;6.824;2023-04-24T08:08:03;1.55;;;0.88;;
19889;SDS011;10107;51.198;6.824;2023-04-24T08:12:05;1.33;;;0.80;;
19889;SDS011;10107;51.198;6.824;2023-04-24T08:16:07;1.58;;;0.77;;
19889;SDS011;10107;51.198;6.824;2023-04-24T08:20:10;1.02;;;0.90;;
19889;SDS011;10107;51.198;6.824;2023-04-24T08:24:15;1.48;;;1.20;;
19889;SDS011;10107;51.198;6.824;2023-04-24T08:28:16;2.58;;;1.80;;
19889;SDS011;10107;51.198;6.824;2023-04-24T08:32:20;3.47;;;2.67;;
19889;SDS011;10107;51.198;6.824;2023-04-24T08:36:22;6.05;;;3.13;;
19889;SDS011;10107;51.198;6.824;2023-04-24T08:40:27;4.65;;;3.22;;
19889;SDS011;10107;51.198;6.824;2023-04-24T08:44:30;5.78;;;3.90;;
19889;SDS011;10107;51.198;6.824;2023-04-24T08:48:33;7.03;;;4.57;;
19889;SDS011;10107;51.198;6.824;2023-04-24T08:52:35;3.88;;;3.05;;
19889;SDS011;10107;51.198;6.824;2023-04-24T08:56:38;6.78;;;4.30;;
19889;SDS011;10107;51.198;6.824;2023-04-24T09:00:45;7.55;;;4.20;;
19889;SDS011;10107;51.198;6.824;2023-04-24T09:04:48;5.53;;;3.30;;
19889;SDS011;10107;51.198;6.824;2023-04-24T09:08:50;3.75;;;2.75;;
19889;SDS011;10107;51.198;6.824;2023-04-24T09:12:57;4.43;;;2.95;;
19889;SDS011;10107;51.198;6.824;2023-04-24T09:17:02;3.72;;;2.45;;
19889;SDS011;10107;51.198;6.824;2023-04-24T09:21:06;3.45;;;2.60;;
19889;SDS011;10107;51.198;6.824;2023-04-24T09:25:09;5.72;;;3.10;;
19889;SDS011;10107;51.198;6.824;2023-04-24T09:29:15;5.63;;;3.60;;
19889;SDS011;10107;51.198;6.824;2023-04-24T09:33:17;7.53;;;3.17;;
19889;SDS011;10107;51.198;6.824;2023-04-24T09:37:27;4.53;;;3.70;;
19889;SDS011;10107;51.198;6.824;2023-04-24T09:41:29;7.00;;;4.07;;
19889;SDS011;10107;51.198;6.824;2023-04-24T09:45:36;4.88;;;3.90;;
19889;SDS011;10107;51.198;6.824;2023-04-24T09:49:39;5.13;;;3.75;;
19889;SDS011;10107;51.198;6.824;2023-04-24T09:53:46;7.35;;;4.25;;
19889;SDS011;10107;51.198;6.824;2023-04-24T09:57:54;7.53;;;4.70;;
19889;SDS011;10107;51.198;6.824;2023-04-24T10:01:58;8.40;;;4.90;;
19889;SDS011;10107;51.198;6.824;2023-04-24T10:06:01;8.40;;;4.88;;
19889;SDS011;10107;51.198;6.824;2023-04-24T10:10:08;10.00;;;5.30;;
19889;SDS011;10107;51.198;6.824;2023-04-24T10:14:12;9.18;;;6.10;;
19889;SDS011;10107;51.198;6.824;2023-04-24T10:18:15;10.77;;;6.10;;
19889;SDS011;10107;51.198;6.824;2023-04-24T10:22:18;10.45;;;5.90;;
19889;SDS011;10107;51.198;6.824;2023-04-24T10:26:19;10.52;;;6.30;;
19889;SDS011;10107;51.198;6.824;2023-04-24T10:30:22;10.65;;;5.90;;
19889;SDS011;10107;51.198;6.824;2023-04-24T10:34:26;11.80;;;6.40;;
19889;SDS011;10107;51.198;6.824;2023-04-24T10:38:30;11.85;;;6.05;;
19889;SDS011;10107;51.198;6.824;2023-04-24T10:42:32;10.45;;;5.75;;
19889;SDS011;10107;51.198;6.824;2023-04-24T10:46:34;10.32;;;5.93;;
19889;SDS011;10107;51.198;6.824;2023-04-24T10:50:44;11.27;;;5.80;;
19889;SDS011;10107;51.198;6.824;2023-04-24T10:54:47;8.98;;;5.05;;
19889;SDS011;10107;51.198;6.824;2023-04-24T10:58:50;9.32;;;4.60;;
19889;SDS011;10107;51.198;6.824;2023-04-24T11:02:53;9.73;;;4.35;;
19889;SDS011;10107;51.198;6.824;2023-04-24T11:06:57;8.70;;;4.07;;
19889;SDS011;10107;51.198;6.824;2023-04-24T11:11:01;9.20;;;4.63;;
19889;SDS011;10107;51.198;6.824;2023-04-24T11:15:05;7.93;;;3.75;;
19889;SDS011;10107;51.198;6.824;2023-04-24T11:19:18;9.07;;;4.50;;
19889;SDS011;10107;51.198;6.824;2023-04-24T11:23:25;9.30;;;4.05;;
19889;SDS011;10107;51.198;6.824;2023-04-24T11:27:28;6.57;;;3.42;;
19889;SDS011;10107;51.198;6.824;2023-04-24T11:31:35;9.23;;;4.10;;
19889;SDS011;10107;51.198;6.824;2023-04-24T11:35:39;9.82;;;4.47;;
19889;SDS011;10107;51.198;6.824;2023-04-24T11:39:43;8.90;;;4.20;;
19889;SDS011;10107;51.198;6.824;2023-04-24T11:43:44;8.23;;;3.70;;
19889;SDS011;10107;51.198;6.824;2023-04-24T11:47:47;7.70;;;3.70;;
19889;SDS011;10107;51.198;6.824;2023-04-24T11:51:49;8.25;;;3.50;;
19889;SDS011;10107;51.198;6.824;2023-04-24T11:55:52;7.90;;;3.25;;
19889;SDS011;10107;51.198;6.824;2023-04-24T11:59:54;9.63;;;4.30;;
19889;SDS011;10107;51.198;6.824;2023-04-24T12:03:59;8.10;;;3.10;;
19889;SDS011;10107;51.198;6.824;2023-04-24T12:08:01;8.25;;;3.50;;
19889;SDS011;10107;51.198;6.824;2023-04-24T12:12:05;9.43;;;3.47;;
19889;SDS011;10107;51.198;6.824;2023-04-24T12:16:07;8.45;;;3.63;;
19889;SDS011;10107;51.198;6.824;2023-04-24T12:20:09;9.10;;;2.90;;
19889;SDS011;10107;51.198;6.824;2023-04-24T12:24:12;10.07;;;4.03;;
19889;SDS011;10107;51.198;6.824;2023-04-24T12:28:15;5.85;;;2.90;;
19889;SDS011;10107;51.198;6.824;2023-04-24T12:32:17;4.60;;;1.67;;
19889;SDS011;10107;51.198;6.824;2023-04-24T12:36:18;5.97;;;2.30;;
19889;SDS011;10107;51.198;6.824;2023-04-24T12:40:24;4.63;;;1.85;;
19889;SDS011;10107;51.198;6.824;2023-04-24T12:44:31;4.22;;;1.90;;
19889;SDS011;10107;51.198;6.824;2023-04-24T12:48:34;5.68;;;2.03;;
19889;SDS011;10107;51.198;6.824;2023-04-24T12:52:36;6.10;;;2.00;;
19889;SDS011;10107;51.198;6.824;2023-04-24T12:56:39;3.30;;;1.60;;
19889;SDS011;10107;51.198;6.824;2023-04-24T13:00:42;6.43;;;1.67;;
19889;SDS011;10107;51.198;6.824;2023-04-24T13:04:46;5.07;;;1.60;;
19889;SDS011;10107;51.198;6.824;2023-04-24T13:08:48;5.90;;;1.98;;
19889;SDS011;10107;51.198;6.824;2023-04-24T13:12:49;2.47;;;1.63;;
19889;SDS011;10107;51.198;6.824;2023-04-24T13:16:52;2.17;;;1.55;;
19889;SDS011;10107;51.198;6.824;2023-04-24T13:20:54;2.75;;;1.75;;
19889;SDS011;10107;51.198;6.824;2023-04-24T13:24:56;2.85;;;1.60;;
19889;SDS011;10107;51.198;6.824;2023-04-24T13:28:58;3.05;;;1.50;;
19889;SDS011;10107;51.198;6.824;2023-04-24T13:33:01;4.03;;;1.60;;
19889;SDS011;10107;51.198;6.824;2023-04-24T13:37:02;3.80;;;2.07;;
19889;SDS011;10107;51.198;6.824;2023-04-24T13:41:05;3.97;;;1.90;;
19889;SDS011;10107;51.198;6.824;2023-04-24T13:45:07;3.45;;;2.10;;
19889;SDS011;10107;51.198;6.824;2023-04-24T13:49:11;3.03;;;1.90;;
19889;SDS011;10107;51.198;6.824;2023-04-24T13:53:13;4.15;;;2.00;;
19889;SDS011;10107;51.198;6.824;2023-04-24T13:57:14;3.42;;;1.77;;
19889;SDS011;10107;51.198;6.824;2023-04-24T14:01:19;3.85;;;1.63;;
19889;SDS011;10107;51.198;6.824;2023-04-24T14:05:25;4.90;;;1.85;;
19889;SDS011;10107;51.198;6.824;2023-04-24T14:09:27;3.50;;;1.30;;
19889;SDS011;10107;51.198;6.824;2023-04-24T14:13:29;3.10;;;1.70;;
19889;SDS011;10107;51.198;6.824;2023-04-24T14:17:30;3.47;;;1.83;;
19889;SDS011;10107;51.198;6.824;2023-04-24T14:21:34;3.90;;;1.90;;
19889;SDS011;10107;51.198;6.824;2023-04-24T14:25:35;5.32;;;1.98;;
19889;SDS011;10107;51.198;6.824;2023-04-24T14:29:37;3.47;;;1.73;;
19889;SDS011;10107;51.198;6.824;2023-04-24T14:33:39;2.83;;;1.40;;
19889;SDS011;10107;51.198;6.824;2023-04-24T14:37:42;3.60;;;1.70;;
19889;SDS011;10107;51.198;6.824;2023-04-24T14:41:44;2.67;;;1.50;;
19889;SDS011;10107;51.198;6.824;2023-04-24T14:45:46;2.75;;;1.40;;
19889;SDS011;10107;51.198;6.824;2023-04-24T14:49:47;3.10;;;1.52;;
19889;SDS011;10107;51.198;6.824;2023-04-24T14:53:51;3.60;;;1.40;;
19889;SDS011;10107;51.198;6.824;2023-04-24T14:57:53;3.80;;;1.30;;
19889;SDS011;10107;51.198;6.824;2023-04-24T15:01:54;3.30;;;1.33;;
19889;SDS011;10107;51.198;6.824;2023-04-24T15:05:58;4.13;;;1.67;;
19889;SDS011;10107;51.198;6.824;2023-04-24T15:10:01;2.20;;;1.48;;
19889;SDS011;10107;51.198;6.824;2023-04-24T15:14:02;5.13;;;1.70;;
19889;SDS011;10107;51.198;6.824;2023-04-24T15:18:04;2.38;;;1.40;;
19889;SDS011;10107;51.198;6.824;2023-04-24T15:26:12;3.00;;;1.83;;
19889;SDS011;10107;51.198;6.824;2023-04-24T15:30:13;3.33;;;1.70;;
19889;SDS011;10107;51.198;6.824;2023-04-24T15:34:15;3.72;;;1.67;;
19889;SDS011;10107;51.198;6.824;2023-04-24T15:38:17;2.55;;;1.40;;
19889;SDS011;10107;51.198;6.824;2023-04-24T15:42:20;3.63;;;1.90;;
19889;SDS011;10107;51.198;6.824;2023-04-24T15:46:21;2.83;;;1.97;;
19889;SDS011;10107;51.198;6.824;2023-04-24T15:50:23;3.58;;;1.67;;
19889;SDS011;10107;51.198;6.824;2023-04-24T15:54:25;2.85;;;1.73;;
19889;SDS011;10107;51.198;6.824;2023-04-24T15:58:28;4.45;;;2.10;;
19889;SDS011;10107;51.198;6.824;2023-04-24T16:02:30;1.90;;;1.55;;
19889;SDS011;10107;51.198;6.824;2023-04-24T16:06:31;2.90;;;1.70;;
19889;SDS011;10107;51.198;6.824;2023-04-24T16:10:33;3.08;;;1.70;;
19889;SDS011;10107;51.198;6.824;2023-04-24T16:14:36;3.25;;;1.77;;
19889;SDS011;10107;51.198;6.824;2023-04-24T16:18:37;2.92;;;1.98;;
19889;SDS011;10107;51.198;6.824;2023-04-24T16:22:39;3.75;;;2.03;;
19889;SDS011;10107;51.198;6.824;2023-04-24T16:26:41;2.55;;;1.70;;
19889;SDS011;10107;51.198;6.824;2023-04-24T16:30:44;2.78;;;1.55;;
19889;SDS011;10107;51.198;6.824;2023-04-24T16:34:46;1.20;;;1.10;;
19889;SDS011;10107;51.198;6.824;2023-04-24T16:38:48;3.45;;;1.67;;
19889;SDS011;10107;51.198;6.824;2023-04-24T16:42:50;2.45;;;1.70;;
19889;SDS011;10107;51.198;6.824;2023-04-24T16:46:53;2.38;;;1.50;;
19889;SDS011;10107;51.198;6.824;2023-04-24T16:50:55;2.40;;;1.23;;
19889;SDS011;10107;51.198;6.824;2023-04-24T16:54:57;5.88;;;1.80;;
19889;SDS011;10107;51.198;6.824;2023-04-24T16:58:59;2.00;;;1.48;;
19889;SDS011;10107;51.198;6.824;2023-04-24T17:03:02;2.22;;;1.70;;
19889;SDS011;10107;51.198;6.824;2023-04-24T17:07:04;3.93;;;1.80;;
19889;SDS011;10107;51.198;6.824;2023-04-24T17:11:06;4.20;;;1.67;;
19889;SDS011;10107;51.198;6.824;2023-04-24T17:15:08;2.85;;;1.95;;
19889;SDS011;10107;51.198;6.824;2023-04-24T17:19:13;5.28;;;2.72;;
19889;SDS011;10107;51.198;6.824;2023-04-24T17:23:15;2.20;;;1.50;;
19889;SDS011;10107;51.198;6.824;2023-04-24T17:27:18;3.60;;;1.90;;
19889;SDS011;10107;51.198;6.824;2023-04-24T17:31:21;3.23;;;1.77;;
19889;SDS011;10107;51.198;6.824;2023-04-24T17:35:24;3.58;;;1.80;;
19889;SDS011;10107;51.198;6.824;2023-04-24T17:39:26;2.60;;;1.75;;
19889;SDS011;10107;51.198;6.824;2023-04-24T17:43:28;4.80;;;1.60;;
19889;SDS011;10107;51.198;6.824;2023-04-24T17:47:30;1.90;;;1.60;;
19889;SDS011;10107;51.198;6.824;2023-04-24T17:51:33;3.80;;;1.67;;
19889;SDS011;10107;51.198;6.824;2023-04-24T17:55:35;2.50;;;1.65;;
19889;SDS011;10107;51.198;6.824;2023-04-24T17:59:38;2.92;;;1.80;;
19889;SDS011;10107;51.198;6.824;2023-04-24T18:03:40;2.55;;;1.65;;
19889;SDS011;10107;51.198;6.824;2023-04-24T18:07:44;4.93;;;1.80;;
19889;SDS011;10107;51.198;6.824;2023-04-24T18:11:45;3.30;;;1.60;;
19889;SDS011;10107;51.198;6.824;2023-04-24T18:15:48;3.00;;;1.58;;
19889;SDS011;10107;51.198;6.824;2023-04-24T18:19:50;2.92;;;1.40;;
19889;SDS011;10107;51.198;6.824;2023-04-24T18:23:53;2.45;;;1.50;;
19889;SDS011;10107;51.198;6.824;2023-04-24T18:27:59;2.33;;;1.50;;
19889;SDS011;10107;51.198;6.824;2023-04-24T18:32:01;2.20;;;1.70;;
19889;SDS011;10107;51.198;6.824;2023-04-24T18:36:04;2.70;;;1.83;;
19889;SDS011;10107;51.198;6.824;2023-04-24T18:40:08;3.45;;;1.70;;
19889;SDS011;10107;51.198;6.824;2023-04-24T18:44:10;3.78;;;2.20;;
19889;SDS011;10107;51.198;6.824;2023-04-24T18:48:12;3.97;;;2.22;;
19889;SDS011;10107;51.198;6.824;2023-04-24T18:52:14;4.35;;;2.45;;
19889;SDS011;10107;51.198;6.824;2023-04-24T18:56:17;2.95;;;1.90;;
19889;SDS011;10107;51.198;6.824;2023-04-24T19:00:19;3.30;;;1.83;;
19889;SDS011;10107;51.198;6.824;2023-04-24T19:04:23;4.65;;;2.10;;
19889;SDS011;10107;51.198;6.824;2023-04-24T19:08:31;5.80;;;2.10;;
19889;SDS011;10107;51.198;6.824;2023-04-24T19:12:34;4.60;;;2.33;;
19889;SDS011;10107;51.198;6.824;2023-04-24T19:16:36;4.22;;;2.13;;
19889;SDS011;10107;51.198;6.824;2023-04-24T19:20:37;5.47;;;2.30;;
19889;SDS011;10107;51.198;6.824;2023-04-24T19:24:39;4.85;;;2.30;;
19889;SDS011;10107;51.198;6.824;2023-04-24T19:28:42;4.32;;;2.50;;
19889;SDS011;10107;51.198;6.824;2023-04-24T19:32:44;2.28;;;1.70;;
19889;SDS011;10107;51.198;6.824;2023-04-24T19:36:46;4.20;;;2.13;;
19889;SDS011;10107;51.198;6.824;2023-04-24T19:40:48;7.15;;;4.00;;
19889;SDS011;10107;51.198;6.824;2023-04-24T19:44:51;5.68;;;3.47;;
19889;SDS011;10107;51.198;6.824;2023-04-24T19:48:53;6.20;;;3.83;;
19889;SDS011;10107;51.198;6.824;2023-04-24T19:52:54;9.93;;;5.82;;
19889;SDS011;10107;51.198;6.824;2023-04-24T19:56:59;9.48;;;5.10;;
19889;SDS011;10107;51.198;6.824;2023-04-24T20:01:06;10.85;;;6.07;;
19889;SDS011;10107;51.198;6.824;2023-04-24T20:05:08;8.57;;;5.05;;
19889;SDS011;10107;51.198;6.824;2023-04-24T20:09:10;5.88;;;3.88;;
19889;SDS011;10107;51.198;6.824;2023-04-24T20:13:12;5.10;;;3.85;;
19889;SDS011;10107;51.198;6.824;2023-04-24T20:17:15;5.57;;;3.35;;
19889;SDS011;10107;51.198;6.824;2023-04-24T20:21:18;4.07;;;2.83;;
19889;SDS011;10107;51.198;6.824;2023-04-24T20:25:20;5.70;;;3.30;;
19889;SDS011;10107;51.198;6.824;2023-04-24T20:29:22;5.93;;;3.17;;
19889;SDS011;10107;51.198;6.824;2023-04-24T20:33:26;6.40;;;3.40;;
19889;SDS011;10107;51.198;6.824;2023-04-24T20:37:29;7.32;;;3.53;;
19889;SDS011;10107;51.198;6.824;2023-04-24T20:41:31;6.97;;;3.50;;
19889;SDS011;10107;51.198;6.824;2023-04-24T20:45:34;6.10;;;3.10;;
19889;SDS011;10107;51.198;6.824;2023-04-24T20:49:37;5.68;;;3.60;;
19889;SDS011;10107;51.198;6.824;2023-04-24T20:53:39;6.30;;;4.00;;
19889;SDS011;10107;51.198;6.824;2023-04-24T20:57:41;9.90;;;6.22;;
19889;SDS011;10107;51.198;6.824;2023-04-24T21:01:43;18.35;;;10.07;;
19889;SDS011;10107;51.198;6.824;2023-04-24T21:05:47;11.70;;;6.82;;
19889;SDS011;10107;51.198;6.824;2023-04-24T21:09:49;7.65;;;4.78;;
19889;SDS011;10107;51.198;6.824;2023-04-24T21:13:52;7.20;;;3.50;;
19889;SDS011;10107;51.198;6.824;2023-04-24T21:17:53;6.25;;;3.53;;
19889;SDS011;10107;51.198;6.824;2023-04-24T21:21:56;4.97;;;3.45;;
19889;SDS011;10107;51.198;6.824;2023-04-24T21:25:58;7.35;;;3.50;;
19889;SDS011;10107;51.198;6.824;2023-04-24T21:30:00;7.18;;;3.30;;
19889;SDS011;10107;51.198;6.824;2023-04-24T21:34:03;5.53;;;3.47;;
19889;SDS011;10107;51.198;6.824;2023-04-24T21:38:06;6.82;;;3.97;;
19889;SDS011;10107;51.198;6.824;2023-04-24T21:42:08;5.05;;;2.60;;
19889;SDS011;10107;51.198;6.824;2023-04-24T21:46:10;7.18;;;3.88;;
19889;SDS011;10107;51.198;6.824;2023-04-24T21:50:12;7.80;;;3.80;;
19889;SDS011;10107;51.198;6.824;2023-04-24T21:54:16;12.57;;;4.28;;
19889;SDS011;10107;51.198;6.824;2023-04-24T21:58:20;8.35;;;3.92;;
19889;SDS011;10107;51.198;6.824;2023-04-24T22:02:22;9.55;;;3.88;;
19889;SDS011;10107;51.198;6.824;2023-04-24T22:06:23;9.50;;;3.95;;
19889;SDS011;10107;51.198;6.824;2023-04-24T22:10:26;9.80;;;4.60;;
19889;SDS011;10107;51.198;6.824;2023-04-24T22:14:28;7.90;;;3.97;;
19889;SDS011;10107;51.198;6.824;2023-04-24T22:18:30;8.55;;;3.92;;
19889;SDS011;10107;51.198;6.824;2023-04-24T22:22:32;7.32;;;3.80;;
19889;SDS011;10107;51.198;6.824;2023-04-24T22:26:35;7.97;;;3.63;;
19889;SDS011;10107;51.198;6.824;2023-04-24T22:30:37;9.65;;;4.15;;
19889;SDS011;10107;51.198;6.824;2023-04-24T22:34:38;8.23;;;4.25;;
19889;SDS011;10107;51.198;6.824;2023-04-24T22:38:42;11.45;;;4.55;;
19889;SDS011;10107;51.198;6.824;2023-04-24T22:42:45;6.20;;;3.97;;
19889;SDS011;10107;51.198;6.824;2023-04-24T22:46:47;7.78;;;3.55;;
19889;SDS011;10107;51.198;6.824;2023-04-24T22:50:50;8.98;;;4.38;;
19889;SDS011;10107;51.198;6.824;2023-04-24T22:54:52;8.88;;;4.38;;
19889;SDS011;10107;51.198;6.824;2023-04-24T22:58:55;9.57;;;4.18;;
19889;SDS011;10107;51.198;6.824;2023-04-24T23:02:57;8.27;;;3.95;;
19889;SDS011;10107;51.198;6.824;2023-04-24T23:07:01;8.40;;;4.43;;
19889;SDS011;10107;51.198;6.824;2023-04-24T23:11:03;10.07;;;4.43;;
19889;SDS011;10107;51.198;6.824;2023-04-24T23:15:07;12.50;;;5.07;;
19889;SDS011;10107;51.198;6.824;2023-04-24T23:19:10;10.38;;;4.60;;
19889;SDS011;10107;51.198;6.824;2023-04-24T23:23:12;12.75;;;4.70;;
19889;SDS011;10107;51.198;6.824;2023-04-24T23:27:15;11.10;;;4.95;;
19889;SDS011;10107;51.198;6.824;2023-04-24T23:31:18;10.25;;;4.30;;
19889;SDS011;10107;51.198;6.824;2023-04-24T23:35:20;11.73;;;4.30;;
19889;SDS011;10107;51.198;6.824;2023-04-24T23:39:22;8.60;;;4.32;;
19889;SDS011;10107;51.198;6.824;2023-04-24T23:43:24;14.23;;;5.43;;
19889;SDS011;10107;51.198;6.824;2023-04-24T23:47:28;8.35;;;4.53;;
19889;SDS011;10107;51.198;6.824;2023-04-24T23:51:30;11.70;;;4.60;;
19889;SDS011;10107;51.198;6.824;2023-04-24T23:55:32;11.40;;;4.65;;
19889;SDS011;10107;51.198;6.824;2023-04-24T23:59:34;11.85;;;4.20;;
